Time;durP1;ratioP1;P1;durP2;ratioP2;P2;SDS_P1;SDS_P2;PMS_P1;PMS_P2;Temp;Humidity;BMP_temperature;BMP_pressure;BME280_temperature;BME280_humidity;BME280_pressure;Samples;Min_cycle;Max_cycle;Signal;HPM_P1;HPM_P2
2021/03/11 00:01:04;;;;;;;18.73;12.60;;;7.90;55.30;;;;;;5033475;28;20666;-82
2021/03/11 00:03:32;;;;;;;16.30;12.35;;;8.10;55.00;;;;;;5049158;28;20224;-83
2021/03/11 00:05:59;;;;;;;15.18;12.55;;;8.00;54.70;;;;;;5045760;28;20690;-83
2021/03/11 00:08:27;;;;;;;14.13;11.52;;;8.10;54.90;;;;;;5031534;28;20721;-83
2021/03/11 00:10:54;;;;;;;13.68;11.20;;;8.00;54.70;;;;;;5050228;28;20200;-83
2021/03/11 00:13:21;;;;;;;14.20;11.38;;;8.00;54.90;;;;;;5047991;28;20196;-83
2021/03/11 00:15:48;;;;;;;17.63;12.07;;;8.20;54.90;;;;;;5035400;28;20197;-83
2021/03/11 00:18:16;;;;;;;12.27;11.00;;;8.20;54.80;;;;;;5049910;28;20203;-83
2021/03/11 00:20:44;;;;;;;15.48;12.18;;;8.10;54.90;;;;;;5040070;28;20196;-83
2021/03/11 00:23:11;;;;;;;15.20;11.77;;;8.20;54.90;;;;;;5035368;28;20694;-83
2021/03/11 00:25:38;;;;;;;14.25;11.45;;;8.20;54.60;;;;;;5029719;28;20215;-83
2021/03/11 00:28:05;;;;;;;13.77;10.68;;;8.30;54.90;;;;;;5047504;28;20295;-82
2021/03/11 00:30:33;;;;;;;14.98;12.50;;;8.30;54.80;;;;;;5064712;28;20296;-83
2021/03/11 00:33:00;;;;;;;13.68;12.30;;;8.20;54.70;;;;;;5049139;28;20200;-83
2021/03/11 00:35:27;;;;;;;15.25;12.05;;;8.00;54.50;;;;;;5034728;28;20203;-83
2021/03/11 00:37:54;;;;;;;14.38;11.48;;;8.00;54.70;;;;;;5029793;28;20739;-82
2021/03/11 00:40:22;;;;;;;12.07;10.73;;;8.10;54.80;;;;;;5030254;28;20205;-83
2021/03/11 00:42:50;;;;;;;14.50;12.02;;;8.10;54.50;;;;;;5029359;28;20235;-83
2021/03/11 00:45:17;;;;;;;12.70;11.00;;;8.10;54.80;;;;;;5046136;28;20306;-82
2021/03/11 00:47:47;;;;;;;16.50;12.82;;;8.10;54.70;;;;;;5043835;28;20291;-83
2021/03/11 00:50:17;;;;;;;14.30;12.02;;;8.00;54.80;;;;;;5049099;28;20200;-83
2021/03/11 00:52:44;;;;;;;15.52;13.00;;;8.20;55.10;;;;;;5044434;28;20201;-83
2021/03/11 00:55:13;;;;;;;15.38;11.95;;;8.10;54.90;;;;;;5031583;28;20571;-82
2021/03/11 00:57:40;;;;;;;15.07;11.65;;;7.90;54.70;;;;;;5036760;28;20711;-83
2021/03/11 01:00:09;;;;;;;15.57;12.07;;;7.90;55.70;;;;;;5053275;28;20253;-82
2021/03/11 01:02:35;;;;;;;15.90;12.20;;;8.00;55.60;;;;;;5046181;28;20200;-82
2021/03/11 01:05:02;;;;;;;16.20;11.68;;;8.20;55.60;;;;;;5033581;28;20242;-83
2021/03/11 01:07:28;;;;;;;15.10;11.88;;;8.20;55.40;;;;;;5041927;28;20239;-83
2021/03/11 01:09:55;;;;;;;15.88;11.57;;;8.20;55.30;;;;;;5052951;28;20220;-83
2021/03/11 01:12:22;;;;;;;14.95;11.68;;;8.20;55.40;;;;;;5044800;28;20218;-82
2021/03/11 01:14:49;;;;;;;14.02;11.95;;;8.20;55.70;;;;;;5041566;28;20201;-83
2021/03/11 01:17:15;;;;;;;13.88;11.57;;;8.30;55.70;;;;;;5046097;28;20196;-83
2021/03/11 01:19:42;;;;;;;16.23;11.90;;;8.40;55.50;;;;;;5041647;28;20207;-83
2021/03/11 01:22:08;;;;;;;14.45;11.40;;;8.00;55.80;;;;;;5033977;28;20217;-83
2021/03/11 01:24:34;;;;;;;12.77;10.30;;;8.00;56.20;;;;;;5034096;28;20239;-83
2021/03/11 01:27:01;;;;;;;15.02;10.02;;;8.00;56.20;;;;;;5034954;28;20201;-83
2021/03/11 01:29:29;;;;;;;11.38;9.85;;;7.80;56.40;;;;;;5052237;28;20582;-83
2021/03/11 01:31:56;;;;;;;11.25;8.90;;;7.80;56.30;;;;;;5037048;28;20212;-83
2021/03/11 01:34:22;;;;;;;10.98;8.68;;;7.90;56.50;;;;;;5033602;28;20197;-83
2021/03/11 01:36:48;;;;;;;12.32;9.32;;;8.00;57.20;;;;;;5048105;28;20258;-83
2021/03/11 01:39:15;;;;;;;9.05;7.68;;;8.00;56.80;;;;;;5053592;28;20208;-83
2021/03/11 01:41:41;;;;;;;14.30;8.68;;;8.00;56.80;;;;;;5051657;28;20227;-84
2021/03/11 01:44:08;;;;;;;11.57;6.93;;;7.90;56.90;;;;;;5045643;28;20239;-83
2021/03/11 01:46:35;;;;;;;9.82;7.35;;;8.00;57.20;;;;;;5054117;28;20203;-83
2021/03/11 01:49:01;;;;;;;9.60;6.32;;;8.00;57.60;;;;;;5037681;28;20209;-82
2021/03/11 01:51:29;;;;;;;6.47;5.70;;;8.00;57.70;;;;;;5044667;28;20199;-83
2021/03/11 01:53:55;;;;;;;7.78;6.07;;;8.00;57.90;;;;;;5052941;28;20207;-83
2021/03/11 01:56:22;;;;;;;6.15;5.55;;;8.10;58.30;;;;;;5034006;28;20193;-83
2021/03/11 01:58:48;;;;;;;6.72;5.45;;;8.30;58.30;;;;;;5038206;28;20203;-83
2021/03/11 02:01:15;;;;;;;4.93;4.18;;;8.50;58.10;;;;;;5052432;28;20707;-83
2021/03/11 02:03:42;;;;;;;5.78;4.50;;;8.30;57.90;;;;;;5038037;28;20205;-83
2021/03/11 02:06:11;;;;;;;6.82;5.72;;;8.20;58.50;;;;;;5036080;28;20232;-83
2021/03/11 02:08:38;;;;;;;6.88;4.88;;;8.20;58.50;;;;;;5038348;28;20216;-83
2021/03/11 02:11:08;;;;;;;7.25;5.30;;;8.30;58.40;;;;;;5055872;28;20593;-82
2021/03/11 02:13:42;;;;;;;8.75;5.97;;;8.30;58.70;;;;;;5056744;28;20211;-83
2021/03/11 02:16:15;;;;;;;7.90;6.45;;;8.30;58.50;;;;;;5048349;28;20252;-83
2021/03/11 02:18:47;;;;;;;11.23;7.03;;;8.30;58.50;;;;;;5062783;28;20191;-83
2021/03/11 02:21:22;;;;;;;9.70;5.00;;;8.20;58.40;;;;;;5036405;28;20203;-83
2021/03/11 02:24:29;;;;;;;6.82;5.15;;;8.20;58.80;;;;;;5052014;28;20224;-83
2021/03/11 02:27:33;;;;;;;7.10;5.88;;;8.40;58.60;;;;;;5044056;28;20544;-83
2021/03/11 02:30:11;;;;;;;9.70;5.43;;;8.60;58.30;;;;;;5046387;28;20286;-83
2021/03/11 02:32:39;;;;;;;10.45;6.18;;;8.60;57.90;;;;;;5056300;28;20574;-83
2021/03/11 02:35:09;;;;;;;6.82;5.95;;;8.70;57.90;;;;;;5032390;28;20296;-83
2021/03/11 02:37:39;;;;;;;7.25;6.32;;;8.70;57.70;;;;;;5049295;28;20195;-83
2021/03/11 02:40:10;;;;;;;7.47;6.18;;;8.70;57.80;;;;;;5036644;28;20674;-82
2021/03/11 02:42:40;;;;;;;10.52;7.70;;;8.70;57.90;;;;;;5032970;28;20220;-82
2021/03/11 02:45:13;;;;;;;8.48;6.90;;;8.70;57.40;;;;;;5032211;28;20600;-83
2021/03/11 02:47:43;;;;;;;10.38;7.15;;;8.70;57.60;;;;;;5042126;28;20572;-83
2021/03/11 02:50:12;;;;;;;10.32;7.13;;;8.80;57.40;;;;;;5036190;28;20667;-82
2021/03/11 02:52:41;;;;;;;8.85;7.43;;;8.80;57.20;;;;;;5041179;28;20567;-82
2021/03/11 02:55:11;;;;;;;9.45;7.65;;;8.80;57.20;;;;;;5051798;28;20200;-83
2021/03/11 02:57:40;;;;;;;8.80;7.22;;;8.90;56.90;;;;;;5043217;28;20254;-83
2021/03/11 03:00:11;;;;;;;9.27;7.10;;;9.00;56.70;;;;;;5032174;28;20714;-83
2021/03/11 03:02:41;;;;;;;8.75;6.72;;;8.80;56.50;;;;;;5033409;28;20212;-82
2021/03/11 03:05:11;;;;;;;8.80;7.50;;;8.80;56.50;;;;;;5038997;28;20196;-83
2021/03/11 03:07:42;;;;;;;11.85;8.60;;;8.70;56.50;;;;;;5051736;28;20611;-82
2021/03/11 03:10:14;;;;;;;8.88;6.93;;;8.70;56.40;;;;;;5049691;28;20241;-83
2021/03/11 03:12:42;;;;;;;9.23;7.80;;;8.70;56.50;;;;;;5051044;28;20210;-82
2021/03/11 03:15:12;;;;;;;8.48;6.53;;;8.80;56.40;;;;;;5037893;28;20291;-83
2021/03/11 03:17:39;;;;;;;9.57;7.38;;;8.90;56.50;;;;;;5051136;28;20206;-84
2021/03/11 03:20:08;;;;;;;8.73;7.00;;;8.80;56.10;;;;;;5031735;28;20197;-83
2021/03/11 03:22:36;;;;;;;10.40;7.22;;;8.90;56.00;;;;;;5063653;28;20195;-83
2021/03/11 03:25:06;;;;;;;7.72;6.90;;;8.80;56.10;;;;;;5050690;28;20216;-83
2021/03/11 03:27:33;;;;;;;11.82;8.23;;;8.90;56.20;;;;;;5050158;28;20219;-83
2021/03/11 03:30:00;;;;;;;7.85;6.93;;;8.90;57.00;;;;;;5043064;28;20212;-83
2021/03/11 03:32:27;;;;;;;8.90;7.30;;;8.80;58.40;;;;;;5034769;28;20208;-83
2021/03/11 03:34:54;;;;;;;6.90;6.18;;;8.70;58.50;;;;;;5045443;28;20220;-83
2021/03/11 03:37:20;;;;;;;9.05;6.75;;;8.70;58.90;;;;;;5049641;28;20200;-82
2021/03/11 03:39:47;;;;;;;9.55;7.35;;;8.60;59.00;;;;;;5050729;28;20281;-83
2021/03/11 03:42:14;;;;;;;7.03;6.32;;;8.70;58.70;;;;;;5034119;28;20212;-83
2021/03/11 03:44:43;;;;;;;6.90;6.22;;;8.80;58.70;;;;;;5043432;28;20208;-83
2021/03/11 03:47:12;;;;;;;5.47;4.97;;;8.70;58.30;;;;;;5050916;28;20203;-83
2021/03/11 03:49:41;;;;;;;6.43;5.32;;;8.70;58.50;;;;;;5041743;28;20230;-83
2021/03/11 03:52:08;;;;;;;6.90;6.07;;;8.60;58.50;;;;;;5050945;28;20211;-83
2021/03/11 03:54:39;;;;;;;6.13;5.53;;;8.60;58.60;;;;;;5048776;28;20208;-83
2021/03/11 03:57:11;;;;;;;6.95;5.25;;;8.40;58.60;;;;;;5050022;28;20196;-83
2021/03/11 03:59:40;;;;;;;5.93;5.20;;;8.40;59.30;;;;;;5030740;28;20522;-83
2021/03/11 04:02:07;;;;;;;5.95;4.97;;;8.40;59.50;;;;;;5030744;28;20201;-83
2021/03/11 04:04:37;;;;;;;8.35;4.95;;;8.50;59.90;;;;;;5029418;28;20220;-82
2021/03/11 04:07:08;;;;;;;6.18;4.20;;;8.40;59.90;;;;;;5030940;28;20648;-83
2021/03/11 04:09:35;;;;;;;5.53;4.68;;;8.40;61.20;;;;;;5030606;28;20212;-83
2021/03/11 04:12:02;;;;;;;8.00;4.03;;;8.50;61.60;;;;;;5037354;28;20207;-83
2021/03/11 04:14:29;;;;;;;5.50;3.70;;;8.60;62.30;;;;;;5050291;28;20215;-83
2021/03/11 04:16:56;;;;;;;4.38;3.97;;;8.60;62.40;;;;;;5044739;28;20231;-83
2021/03/11 04:19:24;;;;;;;5.35;4.50;;;8.70;62.80;;;;;;5039990;28;20204;-83
2021/03/11 04:21:51;;;;;;;11.68;4.53;;;8.70;63.50;;;;;;5056444;28;20250;-83
2021/03/11 04:24:20;;;;;;;8.20;3.78;;;8.80;63.90;;;;;;5047033;28;20204;-83
2021/03/11 04:26:47;;;;;;;6.40;3.10;;;8.80;64.10;;;;;;5041425;28;20204;-84
2021/03/11 04:29:15;;;;;;;5.50;4.30;;;8.90;64.40;;;;;;5048792;28;20224;-84
2021/03/11 04:31:42;;;;;;;5.65;4.30;;;8.90;64.50;;;;;;5030107;28;20204;-83
2021/03/11 04:34:09;;;;;;;4.05;3.65;;;8.90;64.80;;;;;;5049087;28;20215;-83
2021/03/11 04:36:35;;;;;;;4.05;3.63;;;9.00;65.10;;;;;;5030693;28;20596;-83
2021/03/11 04:39:02;;;;;;;4.95;4.22;;;8.90;65.30;;;;;;5037317;28;20254;-83
2021/03/11 04:41:31;;;;;;;5.60;3.65;;;9.00;65.50;;;;;;5048848;28;20200;-83
2021/03/11 04:44:01;;;;;;;3.33;2.90;;;9.00;65.30;;;;;;5047947;28;20224;-83
2021/03/11 04:46:29;;;;;;;3.85;3.45;;;9.20;65.20;;;;;;5050748;28;20239;-84
2021/03/11 04:48:59;;;;;;;4.00;3.60;;;9.10;64.90;;;;;;5038783;28;20300;-83
2021/03/11 04:51:26;;;;;;;3.85;3.17;;;9.10;65.40;;;;;;5040293;28;20211;-83
2021/03/11 04:53:54;;;;;;;5.57;4.35;;;9.20;65.70;;;;;;5046020;28;20209;-83
2021/03/11 04:56:21;;;;;;;4.55;3.42;;;9.20;65.80;;;;;;5030271;28;20239;-83
2021/03/11 04:58:49;;;;;;;4.22;3.83;;;9.30;65.60;;;;;;5031351;28;20651;-83
2021/03/11 05:01:21;;;;;;;4.38;3.42;;;9.20;65.50;;;;;;5031018;28;20201;-84
2021/03/11 05:03:48;;;;;;;3.72;3.15;;;9.20;65.90;;;;;;5049201;28;20618;-83
2021/03/11 05:06:15;;;;;;;4.53;3.30;;;9.30;66.00;;;;;;5048482;28;20574;-83
2021/03/11 05:08:42;;;;;;;5.95;3.97;;;9.40;66.00;;;;;;5040416;28;20212;-83
2021/03/11 05:11:10;;;;;;;4.90;4.07;;;9.20;65.80;;;;;;5029797;28;20212;-82
2021/03/11 05:13:37;;;;;;;4.00;3.67;;;9.30;66.20;;;;;;5037562;28;20552;-83
2021/03/11 05:16:05;;;;;;;4.25;3.88;;;9.30;66.80;;;;;;5049932;28;20738;-82
2021/03/11 05:18:31;;;;;;;4.07;3.78;;;9.30;66.30;;;;;;5044324;28;20670;-83
2021/03/11 05:20:58;;;;;;;3.65;3.20;;;9.20;66.60;;;;;;5035700;28;20207;-82
2021/03/11 05:23:25;;;;;;;5.57;3.25;;;9.20;66.60;;;;;;5034363;28;20262;-83
2021/03/11 05:25:53;;;;;;;4.03;3.63;;;9.30;66.80;;;;;;5028157;28;20243;-82
2021/03/11 05:28:19;;;;;;;4.75;3.25;;;9.20;67.00;;;;;;5029142;28;20304;-82
2021/03/11 05:30:45;;;;;;;5.55;3.85;;;9.20;67.30;;;;;;5030042;28;20200;-83
2021/03/11 05:33:13;;;;;;;4.18;3.72;;;9.20;67.20;;;;;;5029286;28;20252;-83
2021/03/11 05:35:39;;;;;;;5.03;3.83;;;9.30;67.20;;;;;;5029895;28;20208;-83
2021/03/11 05:38:06;;;;;;;4.57;3.50;;;9.20;67.30;;;;;;5030200;28;20746;-84
2021/03/11 05:40:33;;;;;;;3.78;3.47;;;9.20;67.80;;;;;;5030835;28;20215;-83
2021/03/11 05:43:02;;;;;;;4.70;3.33;;;9.10;67.70;;;;;;5047145;28;20199;-83
2021/03/11 05:45:29;;;;;;;4.28;3.30;;;9.00;68.50;;;;;;5042951;28;20263;-84
2021/03/11 05:47:56;;;;;;;3.80;3.35;;;9.10;68.80;;;;;;5073833;28;20242;-83
2021/03/11 05:50:24;;;;;;;4.30;3.35;;;9.20;68.80;;;;;;5037990;28;20235;-84
2021/03/11 05:52:52;;;;;;;4.22;3.70;;;9.10;68.90;;;;;;5038426;28;20723;-83
2021/03/11 05:55:19;;;;;;;3.38;3.00;;;9.20;69.20;;;;;;5053515;28;20196;-84
2021/03/11 05:57:46;;;;;;;3.45;3.15;;;9.30;69.00;;;;;;5049098;28;20200;-83
2021/03/11 06:00:15;;;;;;;3.95;3.63;;;9.30;69.10;;;;;;5034601;28;20209;-83
2021/03/11 06:02:44;;;;;;;3.30;2.95;;;9.40;68.80;;;;;;5053066;28;20208;-85
2021/03/11 06:05:12;;;;;;;3.13;2.83;;;9.20;68.90;;;;;;5054013;28;20208;-84
2021/03/11 06:07:44;;;;;;;4.30;3.90;;;9.30;69.20;;;;;;5054729;28;20224;-85
2021/03/11 06:10:12;;;;;;;5.60;3.88;;;9.50;68.80;;;;;;5071422;28;20297;-85
2021/03/11 06:12:38;;;;;;;3.60;3.30;;;9.40;68.80;;;;;;5058833;28;20204;-84
2021/03/11 06:15:10;;;;;;;7.85;3.65;;;9.20;69.20;;;;;;5040437;28;20231;-84
2021/03/11 06:17:39;;;;;;;5.45;3.30;;;9.40;69.70;;;;;;5051403;28;20265;-85
2021/03/11 06:20:07;;;;;;;6.05;3.17;;;9.40;69.60;;;;;;5037476;28;20562;-85
2021/03/11 06:22:34;;;;;;;4.47;3.55;;;9.30;69.60;;;;;;5069802;28;20236;-84
2021/03/11 06:25:02;;;;;;;6.13;3.15;;;9.40;69.60;;;;;;5056225;28;20585;-85
2021/03/11 06:27:28;;;;;;;3.50;3.17;;;9.50;69.60;;;;;;5043061;28;20266;-84
2021/03/11 06:29:56;;;;;;;6.00;3.35;;;9.40;69.10;;;;;;5035040;28;20228;-84
2021/03/11 06:32:24;;;;;;;3.70;3.17;;;9.40;69.40;;;;;;5046024;28;20249;-83
2021/03/11 06:34:51;;;;;;;8.45;3.53;;;9.40;69.50;;;;;;5036642;28;20196;-85
2021/03/11 06:37:35;;;;;;;4.18;2.95;;;9.30;69.50;;;;;;5029825;28;20205;-85
2021/03/11 06:40:14;;;;;;;4.13;3.10;;;9.40;69.30;;;;;;5032514;28;20197;-85
2021/03/11 06:42:40;;;;;;;4.57;3.35;;;9.40;69.10;;;;;;5040661;28;20237;-84
2021/03/11 06:45:20;;;;;;;2.95;2.65;;;9.50;68.70;;;;;;5041174;28;20205;-85
2021/03/11 06:47:47;;;;;;;3.58;2.47;;;9.50;69.40;;;;;;5032486;28;20204;-85
2021/03/11 06:50:13;;;;;;;3.30;2.40;;;9.50;68.70;;;;;;5039045;28;20724;-84
2021/03/11 06:52:40;;;;;;;14.48;3.50;;;9.50;68.30;;;;;;5051571;28;20211;-84
2021/03/11 06:55:10;;;;;;;3.88;3.22;;;9.50;68.20;;;;;;5043743;28;20254;-84
2021/03/11 06:57:38;;;;;;;4.45;2.63;;;9.50;68.20;;;;;;5032408;28;20646;-84
2021/03/11 07:00:15;;;;;;;3.28;2.40;;;9.60;68.20;;;;;;5040414;28;20681;-85
2021/03/11 07:02:49;;;;;;;3.40;2.25;;;9.70;67.90;;;;;;5052089;28;20265;-84
2021/03/11 07:05:16;;;;;;;3.47;2.55;;;9.70;67.50;;;;;;5037162;28;20211;-84
2021/03/11 07:07:43;;;;;;;3.80;3.13;;;9.70;68.00;;;;;;5031919;28;20204;-85
2021/03/11 07:10:26;;;;;;;3.92;3.35;;;9.80;67.70;;;;;;5044956;28;20230;-85
2021/03/11 07:12:55;;;;;;;2.38;2.17;;;9.80;67.70;;;;;;5049676;28;20218;-85
2021/03/11 07:15:23;;;;;;;3.53;2.47;;;9.80;67.90;;;;;;5052131;28;20204;-85
2021/03/11 07:17:51;;;;;;;3.50;2.35;;;9.90;67.70;;;;;;5041555;28;20694;-85
2021/03/11 07:20:19;;;;;;;7.28;2.13;;;9.90;67.90;;;;;;5031260;28;20204;-84
2021/03/11 07:23:06;;;;;;;3.77;2.50;;;9.80;67.70;;;;;;5068485;28;20195;-85
2021/03/11 07:25:34;;;;;;;3.33;2.80;;;9.90;68.10;;;;;;5070199;28;21213;-85
2021/03/11 07:28:02;;;;;;;3.13;2.50;;;9.90;67.80;;;;;;5051416;28;20664;-85
2021/03/11 07:30:30;;;;;;;2.67;2.45;;;10.00;66.40;;;;;;5051379;28;20765;-85
2021/03/11 07:33:02;;;;;;;3.93;2.80;;;10.20;66.60;;;;;;5029751;28;20200;-85
2021/03/11 07:35:30;;;;;;;3.67;2.50;;;10.30;66.30;;;;;;5031058;28;20637;-84
2021/03/11 07:38:02;;;;;;;3.90;2.70;;;10.30;66.40;;;;;;5048643;28;20646;-85
2021/03/11 07:40:32;;;;;;;3.70;2.40;;;10.40;66.30;;;;;;5045002;28;20650;-85
2021/03/11 07:42:59;;;;;;;3.30;2.40;;;10.40;66.50;;;;;;5031237;28;20652;-85
2021/03/11 07:45:27;;;;;;;3.27;2.60;;;10.40;66.50;;;;;;5036898;28;20626;-85
2021/03/11 07:47:54;;;;;;;2.20;2.00;;;10.50;66.30;;;;;;5051583;28;20633;-85
2021/03/11 07:50:20;;;;;;;2.80;1.80;;;10.50;66.30;;;;;;5045987;28;21012;-85
2021/03/11 07:52:48;;;;;;;4.17;2.90;;;10.60;66.80;;;;;;5030648;28;20599;-85
2021/03/11 07:55:14;;;;;;;3.83;2.17;;;10.60;66.20;;;;;;5032019;28;20625;-85
2021/03/11 07:57:43;;;;;;;7.17;2.10;;;10.60;66.40;;;;;;5041050;28;21206;-85
2021/03/11 08:00:13;;;;;;;3.03;2.13;;;10.50;66.80;;;;;;5040576;28;21083;-85
2021/03/11 08:02:50;;;;;;;2.40;2.20;;;10.60;66.70;;;;;;5045101;28;20610;-85
2021/03/11 08:05:25;;;;;;;3.50;1.87;;;10.60;66.50;;;;;;5043947;28;20714;-83
2021/03/11 08:08:16;;;;;;;2.23;2.03;;;10.70;66.60;;;;;;5042501;28;20630;-85
2021/03/11 08:10:44;;;;;;;2.90;2.20;;;10.70;66.50;;;;;;5031666;28;20681;-85
2021/03/11 08:13:31;;;;;;;2.03;1.83;;;10.90;66.10;;;;;;5030977;28;20619;-85
2021/03/11 08:15:58;;;;;;;2.90;2.53;;;10.90;66.10;;;;;;5030957;28;20619;-85
2021/03/11 08:18:43;;;;;;;2.10;1.90;;;11.00;65.70;;;;;;5031755;28;20623;-85
2021/03/11 08:21:43;;;;;;;2.40;2.20;;;11.10;65.90;;;;;;5042008;28;20675;-85
2021/03/11 08:24:44;;;;;;;5.43;2.13;;;11.10;65.70;;;;;;5055654;28;20725;-85
2021/03/11 08:27:39;;;;;;;2.73;1.97;;;11.30;65.00;;;;;;5031961;28;21223;-85
2021/03/11 08:30:27;;;;;;;3.40;2.10;;;11.30;64.70;;;;;;5031917;28;20709;-85
2021/03/11 08:32:54;;;;;;;3.70;2.40;;;11.50;64.70;;;;;;5037254;28;20618;-85
2021/03/11 08:35:38;;;;;;;1.70;1.60;;;11.60;64.40;;;;;;5036300;28;20622;-85
2021/03/11 08:38:38;;;;;;;3.60;2.20;;;11.60;64.10;;;;;;5031213;28;21490;-85
2021/03/11 08:41:06;;;;;;;2.07;1.60;;;11.60;64.30;;;;;;5019638;28;20658;-85
2021/03/11 08:43:53;;;;;;;3.00;1.83;;;11.80;64.10;;;;;;5029748;28;20626;-85
2021/03/11 08:46:21;;;;;;;3.70;2.17;;;12.10;63.50;;;;;;5030834;28;20614;-86
2021/03/11 08:48:50;;;;;;;4.10;1.87;;;11.90;63.80;;;;;;5032064;28;20640;-85
2021/03/11 08:51:39;;;;;;;6.97;2.00;;;11.80;64.20;;;;;;5050669;28;20594;-85
2021/03/11 08:54:08;;;;;;;2.30;1.80;;;11.70;64.90;;;;;;5046157;28;20634;-85
2021/03/11 08:56:42;;;;;;;2.10;1.90;;;11.80;65.60;;;;;;5049283;28;20626;-86
2021/03/11 08:59:11;;;;;;;2.03;1.80;;;12.00;65.80;;;;;;5041112;28;20615;-85
2021/03/11 09:01:40;;;;;;;3.70;1.87;;;12.10;65.80;;;;;;5031148;28;20638;-85
2021/03/11 09:04:34;;;;;;;2.07;1.87;;;12.20;65.70;;;;;;5049894;28;20610;-85
2021/03/11 09:07:03;;;;;;;2.90;1.77;;;12.20;65.20;;;;;;5037116;28;21167;-85
2021/03/11 09:09:37;;;;;;;2.97;1.80;;;12.40;65.40;;;;;;5046546;28;20653;-85
2021/03/11 09:12:06;;;;;;;1.47;1.20;;;12.40;65.00;;;;;;5050394;28;20626;-85
2021/03/11 09:14:34;;;;;;;1.93;1.70;;;12.40;64.70;;;;;;5044922;28;20662;-83
2021/03/11 09:17:02;;;;;;;1.80;1.70;;;12.40;64.80;;;;;;5052593;28;20659;-83
2021/03/11 09:19:35;;;;;;;1.80;1.47;;;12.50;64.70;;;;;;5052252;28;20679;-84
2021/03/11 09:22:26;;;;;;;1.70;1.60;;;12.70;64.70;;;;;;5066277;28;20667;-84
2021/03/11 09:25:04;;;;;;;3.07;1.87;;;12.90;63.70;;;;;;5049203;28;21006;-84
2021/03/11 09:27:32;;;;;;;1.73;1.10;;;12.90;63.60;;;;;;5034223;28;20611;-84
2021/03/11 09:30:00;;;;;;;1.20;1.10;;;13.00;62.80;;;;;;5037017;28;21290;-85
2021/03/11 09:32:28;;;;;;;2.03;1.73;;;13.20;63.30;;;;;;5071536;28;20610;-84
2021/03/11 09:34:56;;;;;;;6.70;1.90;;;13.10;63.10;;;;;;5067621;28;20603;-84
2021/03/11 09:37:49;;;;;;;4.17;1.67;;;13.20;63.00;;;;;;5053943;28;21207;-84
2021/03/11 09:40:21;;;;;;;1.40;1.30;;;12.90;63.50;;;;;;5059320;28;20642;-84
2021/03/11 09:43:08;;;;;;;4.33;1.60;;;13.00;63.50;;;;;;5073222;28;20673;-84
2021/03/11 09:45:38;;;;;;;1.80;1.70;;;13.20;63.20;;;;;;5073994;28;21165;-84
2021/03/11 09:48:07;;;;;;;2.50;1.60;;;13.40;63.40;;;;;;5072999;28;20621;-84
2021/03/11 09:50:34;;;;;;;1.93;1.43;;;13.40;63.00;;;;;;5073524;28;20644;-84
2021/03/11 09:53:01;;;;;;;2.43;1.57;;;13.40;63.10;;;;;;5073173;28;20620;-84
2021/03/11 09:55:28;;;;;;;3.30;1.90;;;13.40;63.20;;;;;;5072805;28;20728;-84
2021/03/11 09:57:55;;;;;;;1.80;1.30;;;13.50;62.90;;;;;;5073766;28;20628;-84
2021/03/11 10:00:24;;;;;;;3.87;1.97;;;13.50;62.70;;;;;;5045729;28;20956;-84
2021/03/11 10:02:53;;;;;;;3.77;1.87;;;13.60;62.50;;;;;;5032569;28;20649;-84
2021/03/11 10:05:20;;;;;;;1.77;1.30;;;13.70;62.90;;;;;;5033812;28;20617;-84
2021/03/11 10:07:57;;;;;;;1.47;1.37;;;13.60;62.40;;;;;;5041796;28;20639;-85
2021/03/11 10:10:26;;;;;;;2.07;1.57;;;13.30;63.40;;;;;;5042211;28;20658;-84
2021/03/11 10:12:53;;;;;;;0.97;0.80;;;13.30;64.30;;;;;;5037319;28;20632;-84
2021/03/11 10:15:20;;;;;;;1.10;0.83;;;13.40;63.90;;;;;;5051346;28;21012;-85
2021/03/11 10:17:47;;;;;;;2.20;1.20;;;13.50;63.90;;;;;;5048891;28;20613;-85
2021/03/11 10:20:22;;;;;;;0.90;0.90;;;13.70;63.90;;;;;;5032699;28;20625;-84
2021/03/11 10:22:49;;;;;;;1.50;1.40;;;13.70;64.30;;;;;;5062185;28;20692;-84
2021/03/11 10:25:16;;;;;;;1.60;1.20;;;13.90;64.10;;;;;;5033709;28;20623;-85
2021/03/11 10:27:46;;;;;;;2.13;0.93;;;13.90;64.20;;;;;;5035037;28;20624;-85
2021/03/11 10:30:19;;;;;;;2.00;0.87;;;13.80;63.80;;;;;;5032600;28;20653;-84
2021/03/11 10:32:52;;;;;;;2.00;1.00;;;13.80;64.20;;;;;;5034203;28;20620;-85
2021/03/11 10:35:28;;;;;;;1.60;1.00;;;13.70;65.10;;;;;;5033166;28;20722;-84
2021/03/11 10:37:55;;;;;;;1.17;1.10;;;13.60;65.70;;;;;;5035422;28;20619;-85
2021/03/11 10:40:24;;;;;;;1.43;0.80;;;13.80;67.10;;;;;;5051708;28;20698;-85
2021/03/11 10:42:54;;;;;;;2.87;1.00;;;13.80;66.40;;;;;;5047234;28;20627;-84
2021/03/11 10:45:22;;;;;;;4.20;0.83;;;13.90;66.50;;;;;;5032380;28;20640;-84
2021/03/11 10:47:59;;;;;;;0.90;0.90;;;14.00;66.00;;;;;;5032207;28;20695;-85
2021/03/11 10:50:27;;;;;;;1.23;1.00;;;13.90;66.20;;;;;;5032407;28;20672;-84
2021/03/11 10:52:56;;;;;;;1.30;0.93;;;14.10;67.10;;;;;;5036371;28;20621;-84
2021/03/11 10:55:24;;;;;;;1.30;1.20;;;13.90;66.40;;;;;;5032695;28;21070;-84
2021/03/11 10:57:52;;;;;;;2.40;1.20;;;13.80;67.40;;;;;;5042842;28;20666;-85
2021/03/11 11:00:23;;;;;;;1.00;0.80;;;13.60;67.60;;;;;;5047737;28;20661;-84
2021/03/11 11:02:54;;;;;;;1.00;0.90;;;13.60;68.50;;;;;;5042608;28;20826;-84
2021/03/11 11:05:20;;;;;;;0.90;0.80;;;13.60;68.90;;;;;;5032216;28;20693;-84
2021/03/11 11:07:47;;;;;;;2.30;0.90;;;13.70;69.40;;;;;;5035176;28;20618;-84
2021/03/11 11:10:16;;;;;;;3.43;1.30;;;13.50;69.70;;;;;;5034394;28;20661;-84
2021/03/11 11:12:43;;;;;;;5.17;1.07;;;13.20;71.40;;;;;;5046076;28;20997;-84
2021/03/11 11:15:11;;;;;;;1.23;1.07;;;12.90;78.80;;;;;;5032441;28;20627;-84
2021/03/11 11:17:40;;;;;;;1.07;0.97;;;12.50;82.60;;;;;;5052438;28;20983;-84
2021/03/11 11:20:08;;;;;;;1.50;1.40;;;12.10;87.00;;;;;;5040619;28;20669;-83
2021/03/11 11:22:35;;;;;;;2.40;1.20;;;11.90;90.70;;;;;;5065452;28;20617;-84
2021/03/11 11:25:02;;;;;;;2.20;1.33;;;11.70;91.90;;;;;;5061165;28;21024;-84
2021/03/11 11:27:28;;;;;;;2.10;0.97;;;11.50;92.30;;;;;;5051484;28;20626;-84
2021/03/11 11:29:55;;;;;;;1.57;1.20;;;11.50;93.90;;;;;;5044065;28;20647;-83
2021/03/11 11:32:23;;;;;;;1.83;0.93;;;11.40;94.80;;;;;;5030874;28;20665;-83
2021/03/11 11:34:50;;;;;;;1.53;1.10;;;11.30;95.50;;;;;;5037787;28;20622;-83
2021/03/11 11:37:17;;;;;;;1.60;1.43;;;11.30;96.60;;;;;;5051570;28;21174;-83
2021/03/11 11:39:44;;;;;;;1.33;1.17;;;11.30;96.60;;;;;;5046504;28;20630;-83
2021/03/11 11:42:11;;;;;;;2.83;1.10;;;11.20;97.10;;;;;;5031635;28;20666;-83
2021/03/11 11:44:38;;;;;;;2.60;1.30;;;11.20;97.40;;;;;;5031773;28;20622;-83
2021/03/11 11:47:05;;;;;;;1.43;1.27;;;11.20;98.10;;;;;;5031517;28;20642;-84
2021/03/11 11:49:33;;;;;;;1.70;1.27;;;11.10;98.10;;;;;;5047149;28;21319;-83
2021/03/11 11:52:00;;;;;;;1.00;1.00;;;11.20;99.40;;;;;;5050586;28;20657;-84
2021/03/11 11:54:27;;;;;;;4.67;1.20;;;11.10;98.80;;;;;;5033278;28;20631;-83
2021/03/11 11:56:53;;;;;;;0.80;0.80;;;11.10;99.90;;;;;;5053036;28;20627;-83
2021/03/11 11:59:20;;;;;;;2.73;1.20;;;11.10;99.80;;;;;;5053896;28;20611;-84
2021/03/11 12:01:47;;;;;;;1.60;1.17;;;11.10;99.90;;;;;;5041643;28;20627;-83
2021/03/11 12:04:14;;;;;;;1.20;1.10;;;11.10;99.90;;;;;;5039882;28;21150;-83
2021/03/11 12:06:41;;;;;;;1.60;1.50;;;11.20;99.90;;;;;;5050043;28;20960;-83
2021/03/11 12:09:08;;;;;;;1.10;1.10;;;11.30;99.90;;;;;;5030196;28;20681;-82
2021/03/11 12:11:35;;;;;;;1.13;1.03;;;11.30;99.90;;;;;;5030482;28;20606;-82
2021/03/11 12:14:02;;;;;;;1.30;1.20;;;11.30;99.70;;;;;;5038349;28;20650;-82
2021/03/11 12:16:29;;;;;;;2.20;1.30;;;11.40;99.40;;;;;;5043977;28;20637;-82
2021/03/11 12:18:56;;;;;;;1.20;0.87;;;11.30;99.90;;;;;;5044838;28;20998;-82
2021/03/11 12:21:23;;;;;;;1.33;1.13;;;11.40;99.90;;;;;;5044755;28;20617;-82
2021/03/11 12:23:50;;;;;;;1.50;1.40;;;11.40;99.90;;;;;;5055737;28;21232;-82
2021/03/11 12:26:18;;;;;;;1.27;1.00;;;11.50;99.90;;;;;;5050508;28;20669;-82
2021/03/11 12:28:46;;;;;;;1.80;1.20;;;11.50;99.90;;;;;;5044259;28;20626;-81
2021/03/11 12:31:13;;;;;;;1.20;1.10;;;11.50;99.70;;;;;;5049891;28;20633;-82
2021/03/11 12:33:39;;;;;;;1.30;1.00;;;11.70;99.90;;;;;;5046055;28;20627;-82
2021/03/11 12:36:08;;;;;;;2.40;1.37;;;11.70;99.90;;;;;;5050411;28;20704;-82
2021/03/11 12:38:35;;;;;;;0.80;0.80;;;11.90;99.90;;;;;;5037503;28;20640;-81
2021/03/11 12:41:03;;;;;;;1.53;1.20;;;12.10;99.90;;;;;;5049813;28;20614;-82
2021/03/11 12:43:29;;;;;;;1.47;1.33;;;12.10;98.70;;;;;;5041097;28;20950;-82
2021/03/11 12:45:56;;;;;;;1.20;1.10;;;12.10;98.80;;;;;;5050033;28;20672;-82
2021/03/11 12:48:22;;;;;;;0.93;0.93;;;12.20;98.50;;;;;;5039747;28;20626;-82
2021/03/11 12:50:49;;;;;;;2.93;1.50;;;12.40;98.30;;;;;;5052023;28;21080;-82
2021/03/11 12:53:16;;;;;;;1.03;0.93;;;12.60;98.20;;;;;;5046153;28;20630;-82
2021/03/11 12:55:42;;;;;;;1.90;1.10;;;12.50;96.90;;;;;;5056119;28;21236;-82
2021/03/11 12:58:10;;;;;;;1.03;0.93;;;12.60;96.80;;;;;;5049509;28;20622;-82
2021/03/11 13:00:36;;;;;;;2.00;1.20;;;12.60;96.00;;;;;;5056350;28;21237;-82
2021/03/11 13:03:03;;;;;;;1.17;1.10;;;12.70;96.60;;;;;;5049731;28;20627;-82